createdAt,value
2023-07-10T15:45:45.771Z,33.82
2023-07-10T15:48:48.102Z,33.82
2023-07-10T15:51:55.614Z,33.74
2023-07-10T15:55:24.498Z,33.67
2023-07-10T15:58:26.739Z,33.67
2023-07-10T16:01:28.976Z,33.58
2023-07-10T16:04:31.246Z,33.55
2023-07-10T16:07:33.457Z,33.53
2023-07-10T16:10:35.634Z,33.48
2023-07-10T16:13:38.019Z,33.46
2023-07-10T16:16:40.321Z,33.45
2023-07-10T16:19:42.625Z,33.37
2023-07-10T16:22:52.223Z,33.32
2023-07-10T16:25:55.554Z,33.32
2023-07-10T16:29:13.762Z,33.23
2023-07-10T16:32:17.051Z,33.24
2023-07-10T16:35:25.016Z,33.21
2023-07-10T16:38:27.550Z,33.23
2023-07-10T16:41:32.842Z,33.19
2023-07-10T16:44:35.069Z,33.18
2023-07-10T16:47:37.351Z,33.16
2023-07-10T16:50:39.625Z,33.09
2023-07-10T16:53:42.705Z,33.05
2023-07-10T16:56:44.984Z,33.03
2023-07-10T16:59:47.191Z,33.01
2023-07-10T17:02:54.017Z,32.96
2023-07-10T17:06:00.365Z,32.97
2023-07-10T17:09:02.811Z,32.91
2023-07-10T17:12:05.359Z,32.88
2023-07-10T17:15:10.825Z,32.88
2023-07-10T17:18:18.104Z,32.84
2023-07-10T17:21:20.418Z,32.76
2023-07-10T17:24:23.041Z,32.73
2023-07-10T17:27:29.860Z,32.68
2023-07-10T17:30:32.122Z,32.65
2023-07-10T17:33:38.637Z,32.60
2023-07-10T17:36:40.806Z,32.57
2023-07-10T17:39:43.811Z,32.56
2023-07-10T17:42:46.092Z,32.53
2023-07-10T17:45:48.920Z,32.49
2023-07-10T17:48:51.156Z,32.44
2023-07-10T17:51:53.529Z,32.33
2023-07-10T17:54:55.814Z,32.32
2023-07-10T17:57:58.977Z,32.20
2023-07-10T18:01:01.416Z,32.16
2023-07-10T18:04:03.721Z,32.09
2023-07-10T18:07:05.970Z,32.00
2023-07-10T18:10:09.001Z,31.96
2023-07-10T18:13:28.864Z,31.91
2023-07-10T18:16:31.186Z,31.80
2023-07-10T18:19:33.374Z,31.75
2023-07-10T18:22:36.692Z,31.72
2023-07-10T18:25:38.853Z,31.61
2023-07-10T18:28:41.141Z,31.52
2023-07-10T18:31:44.108Z,31.50
2023-07-10T18:34:49.137Z,31.44
2023-07-10T18:37:51.355Z,31.40
2023-07-10T18:40:56.732Z,31.33
2023-07-10T18:44:00.395Z,31.30
2023-07-10T18:47:02.617Z,31.29
2023-07-10T18:50:07.031Z,31.28
2023-07-10T18:53:14.685Z,31.22
2023-07-10T18:56:17.580Z,31.17
2023-07-10T18:59:27.670Z,31.02
2023-07-10T19:02:30.065Z,30.90
2023-07-10T19:05:32.468Z,30.78
2023-07-10T19:08:35.132Z,30.81
2023-07-10T19:11:37.317Z,30.76
2023-07-10T19:14:39.463Z,30.68
2023-07-10T19:17:42.736Z,30.53
2023-07-10T19:20:45.020Z,30.52
2023-07-10T19:23:47.336Z,30.45
2023-07-10T19:26:52.808Z,30.51
2023-07-10T19:29:55.100Z,30.39
2023-07-10T19:32:57.351Z,30.40
2023-07-10T19:35:59.660Z,30.46
2023-07-10T19:39:03.749Z,30.46
2023-07-10T19:42:06.393Z,30.40
2023-07-10T19:45:09.494Z,30.43
2023-07-10T19:48:16.823Z,30.37
2023-07-10T19:51:19.038Z,30.42
2023-07-10T19:54:25.169Z,30.39
2023-07-10T19:57:30.317Z,30.34
2023-07-10T20:00:32.647Z,30.31
2023-07-10T20:03:35.313Z,30.31
2023-07-10T20:06:38.542Z,30.24
2023-07-10T20:09:41.682Z,30.16
2023-07-10T20:12:44.020Z,30.17
2023-07-10T20:15:51.768Z,30.20
2023-07-10T20:18:55.251Z,30.24
2023-07-10T20:21:57.425Z,30.16
2023-07-10T20:25:01.715Z,30.15
2023-07-10T20:28:04.238Z,30.07
2023-07-10T20:31:06.864Z,30.01
2023-07-10T20:34:10.413Z,30.00
2023-07-10T20:37:13.027Z,30.04
2023-07-10T20:40:16.409Z,30.08
2023-07-10T20:43:20.123Z,29.97
2023-07-10T20:46:25.172Z,29.94
2023-07-10T20:49:27.808Z,29.95
2023-07-10T20:52:29.998Z,29.87
2023-07-10T20:55:32.194Z,29.85
2023-07-10T20:58:34.491Z,29.92
2023-07-10T21:01:36.748Z,29.88
2023-07-10T21:04:38.965Z,29.83
2023-07-10T21:07:41.706Z,29.81
2023-07-10T21:10:44.083Z,29.82
2023-07-10T21:13:48.662Z,29.69
2023-07-10T21:16:51.198Z,29.70
2023-07-10T21:19:53.464Z,29.68
2023-07-10T21:22:56.791Z,29.63
2023-07-10T21:26:11.392Z,29.54
2023-07-10T21:29:17.062Z,29.48
2023-07-10T21:32:23.044Z,29.43
2023-07-10T21:35:30.629Z,29.32
2023-07-10T21:38:32.869Z,29.25
2023-07-10T21:41:39.482Z,29.18
2023-07-10T21:44:41.780Z,29.16
2023-07-10T21:47:44.032Z,29.12
2023-07-10T21:50:46.692Z,29.14
2023-07-10T21:53:50.113Z,29.19
2023-07-10T21:56:52.350Z,29.10
2023-07-10T21:59:54.587Z,29.10
2023-07-10T22:02:56.944Z,29.17
2023-07-10T22:06:02.132Z,29.17
2023-07-10T22:09:04.341Z,29.16
2023-07-10T22:12:12.964Z,29.15
2023-07-10T22:15:20.545Z,29.24
2023-07-10T22:18:41.715Z,29.28
2023-07-10T22:21:43.985Z,29.18
2023-07-10T22:24:46.662Z,29.12
2023-07-10T22:27:48.908Z,28.99
2023-07-10T22:30:54.401Z,29.08
2023-07-10T22:33:57.328Z,29.03
2023-07-10T22:36:59.508Z,28.95
2023-07-10T22:40:02.245Z,28.86
2023-07-10T22:43:04.495Z,28.81
2023-07-10T22:46:14.586Z,28.84
2023-07-10T22:49:17.403Z,28.88
2023-07-10T22:52:19.630Z,28.92
2023-07-10T22:55:21.867Z,28.89
2023-07-10T22:58:24.120Z,28.82
2023-07-10T23:01:27.112Z,28.84
2023-07-10T23:04:29.329Z,28.67
2023-07-10T23:07:31.622Z,28.56
2023-07-10T23:10:37.322Z,28.53
2023-07-10T23:13:39.811Z,28.45
2023-07-10T23:16:42.085Z,28.56
2023-07-10T23:19:44.287Z,28.55
2023-07-10T23:22:46.735Z,28.55
2023-07-10T23:25:49.024Z,28.40
2023-07-10T23:28:51.517Z,28.38
2023-07-10T23:31:53.694Z,28.39
2023-07-10T23:35:02.958Z,28.32
2023-07-10T23:38:05.992Z,28.39
2023-07-10T23:41:31.359Z,28.43
2023-07-10T23:44:33.556Z,28.33
2023-07-10T23:47:35.880Z,28.31
2023-07-10T23:50:38.113Z,28.27
2023-07-10T23:53:40.670Z,28.24
2023-07-10T23:56:42.917Z,28.19
2023-07-10T23:59:45.257Z,28.19
